Columbus Muni Information

FAA: OLU - ICAO: KOLU

Columbus Muni (Airport) Location

State Nebraska
County Platte
City Columbus
Columbus Muni (Airport) is 1 mile northeast of Columbus, NE.
Latitude 41-26-55.4000N
Longitude 097-20-27.4000W
Elevation 1,447ft

Columbus Muni METARs

METAR KOLU 191156Z AUTO 16006KT 10SM CLR 18/16 A2961 RMK AO2 SLP015 T01780156 10228 20150 58018
Altimeter 29.61"
Temperature 17.8°C (64.0°F)
Wind 160° at 6KT
Clouds Skies are clear.
Visibility 10.0mi
Time observed: 2022-05-19T11:56:00Z

Columbus Muni (Airport) Details

Status Operational
Activation August 1945
Ownership Public
Usage Public
Chart OMAHA
ATC on-site No
Beacon schedule sunset-sunrise
Beacon color clear green

Columbus Muni (Airport) Contacts

Owner CITY OF COLUMBUS
Owner address P.O. BOX 1677, COLUMBUS, NE 68602-1677
Owner phone 402-562-4227
Manager GAROLD N. BATTERMAN
Manager address ROUTE 2, BOX 155, BROADWATER, NE 69125
Manager phone 308-489-5603

Columbus Muni Radio Frequencies

Columbus Muni (Airport) Radio Frequencies

UNICOM 123.05
Common traffic advisory frequency (CTAF) 123.05